Aérodrome :
LOGIN :

S'inscrire | Disclaimer

   EN    FR    IT 

 










Légende :    VFR   VFR Marginal   IFR   IFR Intensif   IFR Très Intensif
Visi : 
Plafond : 
>= 8 km
>= 3000ft
5 à 8 km
1000 à 3000 ft
1500m à 5 km
500 à 1000 ft
800 à 1500m
200 à 500 ft
< 800m
< 200 ft
Symboles :   Orages  Brouillard  Fortes neiges  Fortes précipitations  Vent > 20 kt
SIGMETs :   Divers  Orages  Givrage  Turbulence  Onde Orograph.  Cendres Volcan.







- Altitude de l'aérodrome : 659 ft
- Code IATA : LGG


EBLG - Liège

DERNIER METAR :
  • 251720Z 34006KT 320V040 CAVOK 21/08 Q1024 NOSIG

METARs EXPIRÉS :
  • 251650Z 35006KT 320V020 CAVOK 21/09 Q1024 NOSIG
  • 251620Z 32005KT 270V360 9999 SCT045 21/09 Q1024 NOSIG
  • 251550Z 01005KT 320V070 9999 SCT045 21/11 Q1025 NOSIG
  • 251520Z 32006KT 260V020 9999 SCT045 21/10 Q1025 NOSIG
  • 251450Z 01006KT 320V040 9999 FEW035 20/10 Q1025 NOSIG

TAF TAF EBLG
Valide du 25 à 18h jusqu'au 27 à 00h UTC


251720Z 2518/2624 02005KT CAVOK
TEMPO 2603/2609 4500 BR BKN008
PROB30
TEMPO 2603/2608 2500 BKN004
Pas de NOTAMs connus pour ce terrain.



MET'MAP, la Météo Aéronautique d'un coup d'oeil ! - Copyright ORBIFLY Décembre 2007 - Disclaimer

ORBIFLY MET'MAP TEAM :

Programmation & Développement : Alexandra Zaïnal
Conception & Développement : Baudouin d'Aumeries
Co-Programmation & Développement : Marc-Olivier Méhu
Soutien technique & logistique : Manuel Goepfert

Contact : metmap@orbifly.com




SOURCES & CREDITS :

   NOAA